Time;durP1;ratioP1;P1;durP2;ratioP2;P2;SDS_P1;SDS_P2;PMS_P1;PMS_P2;Temp;Humidity;BMP_temperature;BMP_pressure;BME280_temperature;BME280_humidity;BME280_pressure;Samples;Min_cycle;Max_cycle;Signal;HPM_P1;HPM_P2
2022/06/10 00:00:03;;;;;;;;;;;;;;;;;;5075548;28;19913;-42
2022/06/10 00:02:29;;;;;;;;;;;;;;;;;;5075703;28;19909;-43
2022/06/10 00:04:57;;;;;;;;;;;;;;;;;;5075472;28;19915;-41
2022/06/10 00:07:24;;;;;;;;;;;;;;;;;;5074302;28;19995;-42
2022/06/10 00:09:49;;;;;;;;;;;;;;;;;;5075484;28;19909;-42
2022/06/10 00:12:17;;;;;;;;;;;;;;;;;;5075207;28;19909;-42
2022/06/10 00:14:42;;;;;;;;;;;;;;;;;;5075450;28;19995;-42
2022/06/10 00:17:07;;;;;;;;;;;;;;;;;;5075332;28;20402;-43
2022/06/10 00:19:32;;;;;;;;;;;;;;;;;;5075559;28;19912;-42
2022/06/10 00:21:57;;;;;;;;;;;;;;;;;;5075321;28;20423;-42
2022/06/10 00:24:23;;;;;;;;;;;;;;;;;;5075440;28;19915;-43
2022/06/10 00:26:49;;;;;;;;;;;;;;;;;;5075298;28;19916;-42
2022/06/10 00:29:17;;;;;;;;;;;;;;;;;;5075166;28;19919;-42
2022/06/10 00:31:42;;;;;;;;;;;;;;;;;;5075919;28;20267;-42
2022/06/10 00:34:09;;;;;;;;;;;;;;;;;;5075420;28;19974;-41
2022/06/10 00:36:37;;;;;;;;;;;;;;;;;;5075491;28;19912;-43
2022/06/10 00:39:02;;;;;;;;;;;;;;;;;;5075487;28;19909;-43
2022/06/10 00:41:29;;;;;;;;;;;;;;;;;;5075288;28;19916;-42
2022/06/10 00:43:54;;;;;;;;;;;;;;;;;;5075423;28;19934;-43
2022/06/10 00:46:22;;;;;;;;;;;;;;;;;;5075195;28;19912;-43
2022/06/10 00:48:49;;;;;;;;;;;;;;;;;;5073882;28;19908;-42
2022/06/10 00:51:14;;;;;;;;;;;;;;;;;;5075317;28;19961;-42
2022/06/10 00:53:42;;;;;;;;;;;;;;;;;;5075228;28;19908;-41
2022/06/10 00:56:09;;;;;;;;;;;;;;;;;;5075393;28;20047;-41
2022/06/10 00:58:34;;;;;;;;;;;;;;;;;;5074455;28;19920;-42
2022/06/10 01:01:02;;;;;;;;;;;;;;;;;;5075045;28;19908;-42
2022/06/10 01:03:27;;;;;;;;;;;;;;;;;;5074965;28;19916;-43
2022/06/10 01:05:53;;;;;;;;;;;;;;;;;;5075013;28;19912;-42
2022/06/10 01:08:19;;;;;;;;;;;;;;;;;;5074820;28;19939;-42
2022/06/10 01:10:44;;;;;;;;;;;;;;;;;;5075425;28;20257;-42
2022/06/10 01:13:12;;;;;;;;;;;;;;;;;;5075042;28;19915;-42
2022/06/10 01:15:39;;;;;;;;;;;;;;;;;;5074892;28;19909;-41
2022/06/10 01:18:04;;;;;;;;;;;;;;;;;;5075286;28;19916;-42
2022/06/10 01:20:31;;;;;;;;;;;;;;;;;;5075060;28;19913;-42
2022/06/10 01:22:56;;;;;;;;;;;;;;;;;;5074628;28;19909;-42
2022/06/10 01:25:21;;;;;;;;;;;;;;;;;;5076964;28;19919;-42
2022/06/10 01:27:49;;;;;;;;;;;;;;;;;;5078441;28;20001;-42
2022/06/10 01:30:17;;;;;;;;;;;;;;;;;;5078177;28;19919;-42
2022/06/10 01:32:43;;;;;;;;;;;;;;;;;;5078882;28;19995;-42
2022/06/10 01:35:08;;;;;;;;;;;;;;;;;;5078233;28;19959;-43
2022/06/10 01:37:33;;;;;;;;;;;;;;;;;;5078132;28;19908;-41
2022/06/10 01:40:00;;;;;;;;;;;;;;;;;;5078296;28;19943;-42
2022/06/10 01:42:28;;;;;;;;;;;;;;;;;;5078135;28;20343;-42
2022/06/10 01:44:53;;;;;;;;;;;;;;;;;;5078061;28;19908;-42
2022/06/10 01:47:18;;;;;;;;;;;;;;;;;;5078172;28;19961;-43
2022/06/10 01:49:46;;;;;;;;;;;;;;;;;;5078054;28;19908;-42
2022/06/10 01:52:13;;;;;;;;;;;;;;;;;;5078024;28;20359;-42
2022/06/10 01:54:40;;;;;;;;;;;;;;;;;;5078413;28;19908;-42
2022/06/10 01:57:08;;;;;;;;;;;;;;;;;;5078229;28;19969;-41
2022/06/10 01:59:33;;;;;;;;;;;;;;;;;;5078066;28;20373;-41
2022/06/10 02:01:58;;;;;;;;;;;;;;;;;;5077937;28;19912;-42
2022/06/10 02:04:26;;;;;;;;;;;;;;;;;;5077956;28;19916;-42
2022/06/10 02:06:51;;;;;;;;;;;;;;;;;;5077473;28;19913;-42
2022/06/10 02:09:16;;;;;;;;;;;;;;;;;;5078662;28;19908;-42
2022/06/10 02:11:42;;;;;;;;;;;;;;;;;;5077760;28;19908;-41
2022/06/10 02:14:10;;;;;;;;;;;;;;;;;;5078053;28;19916;-42
2022/06/10 02:16:36;;;;;;;;;;;;;;;;;;5077850;28;19909;-42
2022/06/10 02:19:02;;;;;;;;;;;;;;;;;;5076756;28;19918;-42
2022/06/10 02:21:27;;;;;;;;;;;;;;;;;;5077649;28;20271;-42
2022/06/10 02:23:53;;;;;;;;;;;;;;;;;;5077888;28;19909;-42
2022/06/10 02:26:18;;;;;;;;;;;;;;;;;;5077546;28;20011;-42
2022/06/10 02:28:43;;;;;;;;;;;;;;;;;;5077638;28;19930;-42
2022/06/10 02:31:08;;;;;;;;;;;;;;;;;;5077367;28;19912;-42
2022/06/10 02:33:36;;;;;;;;;;;;;;;;;;5077003;28;19931;-42
2022/06/10 02:36:01;;;;;;;;;;;;;;;;;;5076931;28;19916;-43
2022/06/10 02:38:29;;;;;;;;;;;;;;;;;;5077741;28;19908;-43
2022/06/10 02:40:55;;;;;;;;;;;;;;;;;;5077330;28;20290;-42
2022/06/10 02:43:22;;;;;;;;;;;;;;;;;;5077386;28;19909;-42
2022/06/10 02:45:50;;;;;;;;;;;;;;;;;;5077142;28;19912;-42
2022/06/10 02:48:18;;;;;;;;;;;;;;;;;;5077250;28;19962;-42
2022/06/10 02:50:46;;;;;;;;;;;;;;;;;;5076972;28;19955;-42
2022/06/10 02:53:11;;;;;;;;;;;;;;;;;;5077163;28;20007;-42
2022/06/10 02:55:38;;;;;;;;;;;;;;;;;;5077065;28;19997;-42
2022/06/10 03:03:31;;;;;;;;;;;;;;;;;;5077213;28;20295;-44
2022/06/10 03:05:57;;;;;;;;;;;;;;;;;;5076722;28;19913;-42
2022/06/10 03:08:23;;;;;;;;;;;;;;;;;;5076678;28;19913;-42
2022/06/10 03:10:49;;;;;;;;;;;;;;;;;;5076569;28;19915;-43
2022/06/10 03:13:17;;;;;;;;;;;;;;;;;;5076516;28;19909;-42
2022/06/10 03:15:42;;;;;;;;;;;;;;;;;;5075404;28;19909;-43
2022/06/10 03:18:10;;;;;;;;;;;;;;;;;;5076390;28;19909;-43
2022/06/10 03:20:38;;;;;;;;;;;;;;;;;;5076637;28;19940;-42
2022/06/10 03:23:06;;;;;;;;;;;;;;;;;;5076411;28;19947;-42
2022/06/10 03:25:31;;;;;;;;;;;;;;;;;;5076254;28;20313;-43
2022/06/10 03:27:59;;;;;;;;;;;;;;;;;;5076062;28;19954;-43
2022/06/10 03:30:24;;;;;;;;;;;;;;;;;;5076312;28;20287;-42
2022/06/10 03:32:50;;;;;;;;;;;;;;;;;;5076232;28;19954;-42
2022/06/10 03:35:15;;;;;;;;;;;;;;;;;;5076284;28;19962;-42
2022/06/10 03:37:42;;;;;;;;;;;;;;;;;;5076338;28;19908;-43
2022/06/10 03:40:09;;;;;;;;;;;;;;;;;;5076035;28;19974;-42
2022/06/10 03:42:35;;;;;;;;;;;;;;;;;;5076236;28;19913;-43
2022/06/10 03:45:00;;;;;;;;;;;;;;;;;;5076101;28;20018;-42
2022/06/10 03:47:25;;;;;;;;;;;;;;;;;;5076093;28;19909;-42
2022/06/10 03:49:50;;;;;;;;;;;;;;;;;;5076027;28;19915;-43
2022/06/10 03:52:16;;;;;;;;;;;;;;;;;;5075992;28;19954;-42
2022/06/10 03:54:41;;;;;;;;;;;;;;;;;;5075836;28;19967;-43
2022/06/10 03:57:08;;;;;;;;;;;;;;;;;;5075619;28;19908;-42
2022/06/10 03:59:33;;;;;;;;;;;;;;;;;;5075648;28;19909;-42
2022/06/10 04:02:00;;;;;;;;;;;;;;;;;;5075400;28;19966;-42
2022/06/10 04:04:25;;;;;;;;;;;;;;;;;;5075802;28;20011;-42
2022/06/10 04:06:50;;;;;;;;;;;;;;;;;;5076339;28;19999;-43
2022/06/10 04:09:18;;;;;;;;;;;;;;;;;;5074828;28;20360;-42
2022/06/10 04:11:43;;;;;;;;;;;;;;;;;;5075765;28;19917;-42
2022/06/10 04:14:08;;;;;;;;;;;;;;;;;;5075207;28;19917;-42
2022/06/10 04:16:35;;;;;;;;;;;;;;;;;;5075571;28;19912;-42
2022/06/10 04:19:01;;;;;;;;;;;;;;;;;;5075359;28;20366;-41
2022/06/10 04:21:26;;;;;;;;;;;;;;;;;;5075561;28;19908;-44
2022/06/10 04:23:52;;;;;;;;;;;;;;;;;;5075645;28;19908;-42
2022/06/10 04:26:17;;;;;;;;;;;;;;;;;;5075355;28;19913;-42
2022/06/10 04:28:45;;;;;;;;;;;;;;;;;;5075688;28;19909;-44
2022/06/10 04:31:10;;;;;;;;;;;;;;;;;;5075455;28;19908;-43
2022/06/10 04:33:35;;;;;;;;;;;;;;;;;;5074974;28;19927;-43
2022/06/10 04:36:01;;;;;;;;;;;;;;;;;;5075334;28;20412;-44
2022/06/10 04:38:28;;;;;;;;;;;;;;;;;;5075241;28;19916;-43
2022/06/10 04:40:58;;;;;;;;;;;;;;;;;;5075291;28;20454;-44
2022/06/10 04:43:23;;;;;;;;;;;;;;;;;;5075320;28;19916;-43
2022/06/10 04:45:48;;;;;;;;;;;;;;;;;;5074975;28;19913;-43
2022/06/10 04:48:16;;;;;;;;;;;;;;;;;;5075141;28;20332;-43
2022/06/10 04:50:41;;;;;;;;;;;;;;;;;;5075291;28;19908;-43
2022/06/10 04:53:06;;;;;;;;;;;;;;;;;;5074882;28;20003;-44
2022/06/10 04:55:34;;;;;;;;;;;;;;;;;;5074868;28;19967;-43
2022/06/10 04:57:59;;;;;;;;;;;;;;;;;;5075809;28;20363;-43
2022/06/10 05:00:24;;;;;;;;;;;;;;;;;;5079081;28;19915;-43
2022/06/10 05:02:50;;;;;;;;;;;;;;;;;;5078923;28;20244;-43
2022/06/10 05:05:17;;;;;;;;;;;;;;;;;;5079207;28;20022;-41
2022/06/10 05:07:42;;;;;;;;;;;;;;;;;;5079207;28;19909;-43
2022/06/10 05:10:10;;;;;;;;;;;;;;;;;;5079018;28;19909;-43
2022/06/10 05:12:35;;;;;;;;;;;;;;;;;;5079176;28;19911;-43
2022/06/10 05:15:01;;;;;;;;;;;;;;;;;;5078642;28;19909;-43
2022/06/10 05:17:26;;;;;;;;;;;;;;;;;;5078721;28;19909;-43
2022/06/10 05:19:51;;;;;;;;;;;;;;;;;;5078535;28;19965;-41
2022/06/10 05:22:19;;;;;;;;;;;;;;;;;;5078325;28;19908;-43
2022/06/10 05:24:47;;;;;;;;;;;;;;;;;;5078558;28;20374;-41
2022/06/10 05:27:15;;;;;;;;;;;;;;;;;;5076149;28;19920;-41
2022/06/10 05:29:41;;;;;;;;;;;;;;;;;;5076430;28;20283;-46
2022/06/10 05:32:06;;;;;;;;;;;;;;;;;;5075707;28;19919;-46
2022/06/10 05:34:47;;;;;;;;;;;;;;;;;;5070545;28;20382;-46
2022/06/10 05:37:15;;;;;;;;;;;;;;;;;;5080078;28;20252;-45
2022/06/10 05:39:40;;;;;;;;;;;;;;;;;;5074964;28;20378;-48
2022/06/10 05:42:05;;;;;;;;;;;;;;;;;;5072227;28;19965;-45
2022/06/10 05:44:30;;;;;;;;;;;;;;;;;;5073766;28;19919;-46
2022/06/10 05:46:57;;;;;;;;;;;;;;;;;;5075927;28;19922;-46
2022/06/10 05:49:22;;;;;;;;;;;;;;;;;;5071701;28;19927;-46
2022/06/10 05:51:49;;;;;;;;;;;;;;;;;;5061132;28;19913;-47
2022/06/10 05:54:14;;;;;;;;;;;;;;;;;;5064685;28;19917;-46
2022/06/10 05:56:40;;;;;;;;;;;;;;;;;;5056471;28;19920;-46
2022/06/10 05:59:05;;;;;;;;;;;;;;;;;;5055894;28;19964;-46
2022/06/10 06:01:30;;;;;;;;;;;;;;;;;;5043448;28;20073;-46
2022/06/10 06:03:55;;;;;;;;;;;;;;;;;;5054313;28;19926;-45
2022/06/10 06:06:21;;;;;;;;;;;;;;;;;;5052937;28;19931;-46
2022/06/10 06:08:46;;;;;;;;;;;;;;;;;;5051053;28;19931;-45
2022/06/10 06:11:11;;;;;;;;;;;;;;;;;;5029908;28;19917;-44
2022/06/10 06:13:36;;;;;;;;;;;;;;;;;;5021011;28;20520;-45
2022/06/10 06:16:02;;;;;;;;;;;;;;;;;;4984024;28;19970;-44
2022/06/10 06:18:27;;;;;;;;;;;;;;;;;;4947509;28;20575;-47
2022/06/10 06:20:52;;;;;;;;;;;;;;;;;;4925401;28;22617;-45
2022/06/10 06:23:18;;;;;;;;;;;;;;;;;;4854854;28;20275;-47
2022/06/10 06:25:44;;;;;;;;;;;;;;;;;;4780539;28;20434;-45
2022/06/10 06:28:09;;;;;;;;;;;;;;;;;;4662828;28;20066;-46
2022/06/10 06:30:35;;;;;;;;;;;;;;;;;;4701597;28;20207;-46
2022/06/10 06:33:00;;;;;;;;;;;;;;;;;;4815071;28;19928;-47
2022/06/10 06:35:25;;;;;;;;;;;;;;;;;;4815151;28;21240;-46
2022/06/10 06:37:51;;;;;;;;;;;;;;;;;;4832096;28;19970;-46
2022/06/10 06:40:16;;;;;;;;;;;;;;;;;;4904436;28;21558;-46
2022/06/10 06:42:41;;;;;;;;;;;;;;;;;;4919758;28;19917;-45
2022/06/10 06:45:06;;;;;;;;;;;;;;;;;;4918778;28;20878;-45
2022/06/10 06:47:31;;;;;;;;;;;;;;;;;;4923436;28;20068;-45
2022/06/10 06:49:56;;;;;;;;;;;;;;;;;;4932114;28;22519;-46
2022/06/10 06:52:21;;;;;;;;;;;;;;;;;;4912051;28;22811;-46
2022/06/10 06:54:46;;;;;;;;;;;;;;;;;;4917372;28;20516;-45
2022/06/10 06:57:11;;;;;;;;;;;;;;;;;;4909732;28;27127;-45
2022/06/10 06:59:38;;;;;;;;;;;;;;;;;;4902361;28;22180;-45
2022/06/10 07:02:03;;;;;;;;;;;;;;;;;;4896522;28;20314;-45
2022/06/10 07:04:28;;;;;;;;;;;;;;;;;;4878455;28;23399;-43
2022/06/10 07:06:53;;;;;;;;;;;;;;;;;;4851849;28;26438;-45
2022/06/10 07:09:18;;;;;;;;;;;;;;;;;;4853276;28;20569;-45
2022/06/10 07:11:44;;;;;;;;;;;;;;;;;;4808290;28;32272;-44
2022/06/10 07:14:09;;;;;;;;;;;;;;;;;;4750816;28;31813;-45
2022/06/10 07:16:34;;;;;;;;;;;;;;;;;;4689510;28;27854;-46
2022/06/10 07:19:00;;;;;;;;;;;;;;;;;;4601401;28;26687;-46
2022/06/10 07:21:27;;;;;;;;;;;;;;;;;;4424700;28;39807;-45
2022/06/10 07:23:52;;;;;;;;;;;;;;;;;;4578888;28;19939;-46
2022/06/10 07:26:17;;;;;;;;;;;;;;;;;;4533177;28;46216;-47
2022/06/10 07:28:42;;;;;;;;;;;;;;;;;;4668434;28;45750;-45
2022/06/10 07:31:08;;;;;;;;;;;;;;;;;;4691377;28;34412;-45
2022/06/10 07:33:35;;;;;;;;;;;;;;;;;;4737312;28;25477;-47
2022/06/10 07:36:00;;;;;;;;;;;;;;;;;;4761839;28;20793;-45
2022/06/10 07:38:26;;;;;;;;;;;;;;;;;;4793795;28;21259;-46
2022/06/10 07:43:35;;;;;;;;;;;;;;;;;;4797033;28;41526;-46
2022/06/10 07:46:00;;;;;;;;;;;;;;;;;;4792403;28;20608;-46
2022/06/10 07:48:26;;;;;;;;;;;;;;;;;;4776250;28;42096;-45
2022/06/10 07:50:51;;;;;;;;;;;;;;;;;;4739415;28;37702;-45
2022/06/10 07:53:16;;;;;;;;;;;;;;;;;;4708298;28;36861;-45
2022/06/10 07:55:41;;;;;;;;;;;;;;;;;;4742511;28;32841;-46
2022/06/10 07:58:06;;;;;;;;;;;;;;;;;;4755571;28;28572;-44
2022/06/10 08:00:31;;;;;;;;;;;;;;;;;;4708435;28;29667;-45
2022/06/10 08:02:59;;;;;;;;;;;;;;;;;;4727019;28;25272;-45
2022/06/10 08:05:25;;;;;;;;;;;;;;;;;;4741871;28;24567;-45
2022/06/10 08:07:50;;;;;;;;;;;;;;;;;;4707901;28;20608;-47
2022/06/10 08:10:15;;;;;;;;;;;;;;;;;;4640114;28;40622;-46
2022/06/10 08:12:40;;;;;;;;;;;;;;;;;;4551465;28;20168;-45
2022/06/10 08:15:05;;;;;;;;;;;;;;;;;;4652518;28;27143;-45
2022/06/10 08:17:31;;;;;;;;;;;;;;;;;;4746426;28;20555;-46
2022/06/10 08:19:56;;;;;;;;;;;;;;;;;;4725290;28;22371;-48
2022/06/10 08:22:34;;;;;;;;;;;;;;;;;;4756874;28;21835;-46
2022/06/10 08:24:59;;;;;;;;;;;;;;;;;;4749197;28;23561;-44
2022/06/10 08:27:24;;;;;;;;;;;;;;;;;;4675674;28;24125;-46
2022/06/10 08:29:49;;;;;;;;;;;;;;;;;;4560819;28;23217;-45
2022/06/10 08:32:14;;;;;;;;;;;;;;;;;;4544905;28;25499;-44
2022/06/10 08:34:42;;;;;;;;;;;;;;;;;;4647996;22;47741;-45
2022/06/10 08:37:08;;;;;;;;;;;;;;;;;;4798600;28;23781;-46
2022/06/10 08:39:33;;;;;;;;;;;;;;;;;;4828311;28;21700;-46
2022/06/10 08:41:58;;;;;;;;;;;;;;;;;;4812703;28;34955;-44
2022/06/10 08:44:23;;;;;;;;;;;;;;;;;;4806867;28;19926;-45
2022/06/10 08:46:50;;;;;;;;;;;;;;;;;;4881338;28;19971;-44
2022/06/10 08:49:15;;;;;;;;;;;;;;;;;;4842773;28;26492;-46
2022/06/10 08:51:40;;;;;;;;;;;;;;;;;;4850162;28;23089;-46
2022/06/10 08:54:05;;;;;;;;;;;;;;;;;;4857200;28;22765;-45
2022/06/10 08:56:30;;;;;;;;;;;;;;;;;;4833865;28;26636;-46
2022/06/10 08:58:55;;;;;;;;;;;;;;;;;;4808829;28;19920;-46
2022/06/10 09:01:21;;;;;;;;;;;;;;;;;;4796421;28;21927;-45
2022/06/10 09:03:46;;;;;;;;;;;;;;;;;;4788198;28;19928;-45
2022/06/10 09:06:11;;;;;;;;;;;;;;;;;;4772896;28;25674;-46
2022/06/10 09:08:37;;;;;;;;;;;;;;;;;;4783771;28;23524;-46
2022/06/10 09:11:02;;;;;;;;;;;;;;;;;;4774787;28;28178;-45
2022/06/10 09:13:27;;;;;;;;;;;;;;;;;;4813099;28;22664;-47
2022/06/10 09:15:52;;;;;;;;;;;;;;;;;;4812173;28;19921;-46
2022/06/10 09:18:17;;;;;;;;;;;;;;;;;;4729426;28;21655;-45
2022/06/10 09:20:43;;;;;;;;;;;;;;;;;;4674755;28;20001;-45
2022/06/10 09:23:08;;;;;;;;;;;;;;;;;;4547343;28;26867;-46
2022/06/10 09:25:33;;;;;;;;;;;;;;;;;;4557947;28;19941;-46
2022/06/10 09:27:58;;;;;;;;;;;;;;;;;;4661631;28;24025;-44
2022/06/10 09:30:23;;;;;;;;;;;;;;;;;;4714674;28;25782;-45
2022/06/10 09:32:48;;;;;;;;;;;;;;;;;;4711029;28;33486;-45
2022/06/10 09:35:13;;;;;;;;;;;;;;;;;;4730405;28;25947;-45
2022/06/10 09:37:38;;;;;;;;;;;;;;;;;;4762263;28;20721;-45
2022/06/10 09:42:48;;;;;;;;;;;;;;;;;;4782799;28;21905;-45
2022/06/10 09:45:14;;;;;;;;;;;;;;;;;;4790350;28;30989;-45
2022/06/10 09:47:39;;;;;;;;;;;;;;;;;;4780005;28;23024;-44
2022/06/10 09:50:05;;;;;;;;;;;;;;;;;;4758033;28;20637;-46
2022/06/10 09:52:30;;;;;;;;;;;;;;;;;;4758741;28;21892;-44
2022/06/10 09:54:55;;;;;;;;;;;;;;;;;;4794319;28;27461;-44
2022/06/10 09:57:20;;;;;;;;;;;;;;;;;;4735573;28;33153;-44
2022/06/10 09:59:45;;;;;;;;;;;;;;;;;;4732978;28;20455;-44
2022/06/10 10:02:10;;;;;;;;;;;;;;;;;;4714144;28;26889;-46
2022/06/10 10:04:35;;;;;;;;;;;;;;;;;;4693519;28;33121;-44
2022/06/10 10:07:01;;;;;;;;;;;;;;;;;;4730924;28;36861;-46
2022/06/10 10:09:26;;;;;;;;;;;;;;;;;;4665784;28;37127;-46
2022/06/10 10:11:51;;;;;;;;;;;;;;;;;;4487162;28;30208;-45
2022/06/10 10:14:16;;;;;;;;;;;;;;;;;;4526342;28;22304;-45
2022/06/10 10:16:41;;;;;;;;;;;;;;;;;;4665719;28;20638;-45
2022/06/10 10:19:06;;;;;;;;;;;;;;;;;;4678411;28;21175;-46
2022/06/10 10:21:32;;;;;;;;;;;;;;;;;;4725688;28;32546;-45
2022/06/10 10:23:58;;;;;;;;;;;;;;;;;;4740255;28;32924;-45
2022/06/10 10:26:24;;;;;;;;;;;;;;;;;;4761793;28;33304;-45
2022/06/10 10:28:50;;;;;;;;;;;;;;;;;;4792291;28;19920;-48
2022/06/10 10:31:15;;;;;;;;;;;;;;;;;;4794167;28;19920;-45
2022/06/10 10:33:40;;;;;;;;;;;;;;;;;;4781983;28;27320;-46
2022/06/10 10:36:05;;;;;;;;;;;;;;;;;;4759920;28;25474;-46
2022/06/10 10:38:31;;;;;;;;;;;;;;;;;;4701820;28;20710;-46
2022/06/10 10:40:56;;;;;;;;;;;;;;;;;;4664077;28;27561;-45
2022/06/10 10:43:21;;;;;;;;;;;;;;;;;;4722633;28;20864;-46
2022/06/10 10:45:46;;;;;;;;;;;;;;;;;;4709418;28;33300;-45
2022/06/10 10:48:11;;;;;;;;;;;;;;;;;;4737553;28;22866;-48
2022/06/10 10:50:36;;;;;;;;;;;;;;;;;;4791317;28;22325;-45
2022/06/10 10:53:02;;;;;;;;;;;;;;;;;;4831092;28;20942;-45
2022/06/10 10:55:27;;;;;;;;;;;;;;;;;;4841026;28;20430;-46
2022/06/10 10:57:52;;;;;;;;;;;;;;;;;;4787690;28;19928;-45
2022/06/10 11:00:17;;;;;;;;;;;;;;;;;;4732143;28;24377;-46
2022/06/10 11:02:42;;;;;;;;;;;;;;;;;;4735443;28;20693;-47
2022/06/10 11:05:07;;;;;;;;;;;;;;;;;;4769431;28;20222;-45
2022/06/10 11:07:33;;;;;;;;;;;;;;;;;;4797122;28;20531;-46
2022/06/10 11:09:58;;;;;;;;;;;;;;;;;;4804300;28;22562;-44
2022/06/10 11:12:23;;;;;;;;;;;;;;;;;;4835396;28;21118;-44
2022/06/10 11:14:48;;;;;;;;;;;;;;;;;;4835287;28;20418;-46
2022/06/10 11:17:16;;;;;;;;;;;;;;;;;;4834549;28;22474;-45
2022/06/10 11:19:42;;;;;;;;;;;;;;;;;;4852909;28;26136;-45
2022/06/10 11:22:07;;;;;;;;;;;;;;;;;;4825187;28;20698;-44
2022/06/10 11:24:32;;;;;;;;;;;;;;;;;;4817633;28;22510;-45
2022/06/10 11:26:58;;;;;;;;;;;;;;;;;;4787996;28;34401;-44
2022/06/10 11:29:23;;;;;;;;;;;;;;;;;;4770996;28;19995;-44
2022/06/10 11:31:48;;;;;;;;;;;;;;;;;;4617630;28;28312;-46
2022/06/10 11:34:13;;;;;;;;;;;;;;;;;;4645680;28;19936;-45
2022/06/10 11:36:38;;;;;;;;;;;;;;;;;;4729345;28;22390;-45
2022/06/10 11:39:04;;;;;;;;;;;;;;;;;;4795461;28;20014;-45
2022/06/10 11:41:29;;;;;;;;;;;;;;;;;;4806190;28;19921;-45
2022/06/10 11:43:54;;;;;;;;;;;;;;;;;;4828989;28;20578;-44
2022/06/10 11:46:19;;;;;;;;;;;;;;;;;;4852206;28;22547;-45
2022/06/10 11:48:45;;;;;;;;;;;;;;;;;;4839662;28;20651;-46
2022/06/10 11:51:10;;;;;;;;;;;;;;;;;;4805101;28;21470;-45
2022/06/10 11:53:37;;;;;;;;;;;;;;;;;;4805664;28;19920;-44
2022/06/10 12:01:30;;;;;;;;;;;;;;;;;;4770287;28;31655;-44
2022/06/10 12:03:56;;;;;;;;;;;;;;;;;;4794401;28;32314;-47
2022/06/10 12:06:21;;;;;;;;;;;;;;;;;;4776844;28;21296;-45
2022/06/10 12:08:46;;;;;;;;;;;;;;;;;;4811733;28;21650;-44
2022/06/10 12:11:12;;;;;;;;;;;;;;;;;;4771648;28;20939;-45
2022/06/10 12:13:37;;;;;;;;;;;;;;;;;;4773585;28;21478;-44
2022/06/10 12:16:02;;;;;;;;;;;;;;;;;;4763993;28;21401;-44
2022/06/10 12:18:27;;;;;;;;;;;;;;;;;;4611683;28;29860;-45
2022/06/10 12:20:53;;;;;;;;;;;;;;;;;;4617560;28;25949;-44
2022/06/10 12:23:18;;;;;;;;;;;;;;;;;;4513266;28;33089;-44
2022/06/10 12:25:43;;;;;;;;;;;;;;;;;;4602538;28;26343;-44
2022/06/10 12:28:08;;;;;;;;;;;;;;;;;;4737952;28;19920;-46
2022/06/10 12:30:33;;;;;;;;;;;;;;;;;;4739758;28;28659;-45
2022/06/10 12:32:58;;;;;;;;;;;;;;;;;;4790369;28;21097;-45
2022/06/10 12:35:25;;;;;;;;;;;;;;;;;;4824746;28;20092;-45
2022/06/10 12:37:50;;;;;;;;;;;;;;;;;;4850214;28;22195;-44
2022/06/10 12:40:15;;;;;;;;;;;;;;;;;;4849013;28;19943;-44
2022/06/10 12:42:40;;;;;;;;;;;;;;;;;;4854608;28;20534;-45
2022/06/10 12:45:06;;;;;;;;;;;;;;;;;;4877726;28;20015;-44
2022/06/10 12:47:31;;;;;;;;;;;;;;;;;;4880908;28;20033;-43
2022/06/10 12:49:56;;;;;;;;;;;;;;;;;;4889525;28;19924;-46
2022/06/10 12:52:21;;;;;;;;;;;;;;;;;;4833096;28;23391;-45
2022/06/10 12:54:46;;;;;;;;;;;;;;;;;;4845656;28;19947;-44
2022/06/10 12:57:11;;;;;;;;;;;;;;;;;;4833782;28;20274;-46
2022/06/10 12:59:36;;;;;;;;;;;;;;;;;;4823024;28;20054;-45
2022/06/10 13:02:02;;;;;;;;;;;;;;;;;;4818682;28;19920;-43
2022/06/10 13:04:27;;;;;;;;;;;;;;;;;;4811560;28;20970;-45
2022/06/10 13:06:52;;;;;;;;;;;;;;;;;;4819915;28;21140;-43
2022/06/10 13:09:17;;;;;;;;;;;;;;;;;;4824640;28;22268;-45
2022/06/10 13:11:44;;;;;;;;;;;;;;;;;;4766184;28;20547;-44
2022/06/10 13:14:12;;;;;;;;;;;;;;;;;;4712040;28;25654;-47
2022/06/10 13:16:38;;;;;;;;;;;;;;;;;;4812720;28;20742;-45
2022/06/10 13:19:03;;;;;;;;;;;;;;;;;;4893807;28;22439;-43
2022/06/10 13:21:28;;;;;;;;;;;;;;;;;;4934222;28;20038;-44
2022/06/10 13:23:53;;;;;;;;;;;;;;;;;;4957636;28;19928;-45
2022/06/10 13:26:19;;;;;;;;;;;;;;;;;;4970897;28;19927;-43
2022/06/10 13:28:44;;;;;;;;;;;;;;;;;;4989082;28;20015;-45
2022/06/10 13:31:09;;;;;;;;;;;;;;;;;;4987784;28;19927;-44
2022/06/10 13:33:34;;;;;;;;;;;;;;;;;;4983193;28;19931;-44
2022/06/10 13:35:59;;;;;;;;;;;;;;;;;;4955311;28;19951;-44
2022/06/10 13:38:25;;;;;;;;;;;;;;;;;;4966605;28;19920;-46
2022/06/10 13:40:50;;;;;;;;;;;;;;;;;;4966372;28;19922;-45
2022/06/10 13:43:15;;;;;;;;;;;;;;;;;;4991222;28;19920;-45
2022/06/10 13:45:40;;;;;;;;;;;;;;;;;;4988330;28;19928;-46
2022/06/10 13:48:06;;;;;;;;;;;;;;;;;;4996838;28;20959;-44
2022/06/10 13:53:08;;;;;;;;;;;;;;;;;;4987842;28;19966;-44
2022/06/10 13:55:35;;;;;;;;;;;;;;;;;;5011510;28;20018;-45
2022/06/10 13:58:00;;;;;;;;;;;;;;;;;;5015659;28;19920;-46
2022/06/10 14:00:26;;;;;;;;;;;;;;;;;;5008705;28;21021;-45
2022/06/10 14:02:53;;;;;;;;;;;;;;;;;;4983168;28;20641;-46
2022/06/10 14:05:18;;;;;;;;;;;;;;;;;;4981539;28;20935;-44
2022/06/10 14:07:43;;;;;;;;;;;;;;;;;;4999028;28;20182;-46
2022/06/10 14:10:09;;;;;;;;;;;;;;;;;;5008502;28;19942;-47
2022/06/10 14:12:34;;;;;;;;;;;;;;;;;;5017622;28;20233;-47
2022/06/10 14:14:59;;;;;;;;;;;;;;;;;;5030503;28;20025;-47
2022/06/10 14:17:24;;;;;;;;;;;;;;;;;;5039871;28;19927;-45
2022/06/10 14:19:49;;;;;;;;;;;;;;;;;;5047479;28;19959;-43
2022/06/10 14:22:14;;;;;;;;;;;;;;;;;;5057801;28;19955;-43
2022/06/10 14:24:39;;;;;;;;;;;;;;;;;;5058635;28;19920;-46
2022/06/10 14:27:04;;;;;;;;;;;;;;;;;;5044600;28;19931;-46
2022/06/10 14:29:30;;;;;;;;;;;;;;;;;;5045686;28;20007;-47
2022/06/10 14:31:55;;;;;;;;;;;;;;;;;;5055533;28;20031;-46
2022/06/10 14:34:20;;;;;;;;;;;;;;;;;;5053321;28;19924;-44
2022/06/10 14:36:46;;;;;;;;;;;;;;;;;;5053871;28;21468;-47
2022/06/10 14:39:11;;;;;;;;;;;;;;;;;;5057961;28;19932;-43
2022/06/10 14:41:36;;;;;;;;;;;;;;;;;;5056461;28;19921;-46
2022/06/10 14:44:01;;;;;;;;;;;;;;;;;;5057921;28;19920;-44
2022/06/10 14:46:26;;;;;;;;;;;;;;;;;;5060054;28;19924;-44
2022/06/10 14:48:52;;;;;;;;;;;;;;;;;;5072442;28;19921;-44
2022/06/10 14:51:17;;;;;;;;;;;;;;;;;;5066508;28;20391;-48
2022/06/10 14:53:43;;;;;;;;;;;;;;;;;;5059670;28;20355;-45
2022/06/10 14:56:08;;;;;;;;;;;;;;;;;;5073849;28;19927;-45
2022/06/10 14:58:33;;;;;;;;;;;;;;;;;;5068407;28;19920;-47
2022/06/10 15:00:58;;;;;;;;;;;;;;;;;;5077987;28;19918;-45
2022/06/10 15:03:23;;;;;;;;;;;;;;;;;;5091172;28;20013;-43
2022/06/10 15:08:32;;;;;;;;;;;;;;;;;;5092846;28;19954;-46
2022/06/10 15:10:59;;;;;;;;;;;;;;;;;;5088132;28;20274;-46
2022/06/10 15:13:24;;;;;;;;;;;;;;;;;;5085820;28;20347;-44
2022/06/10 15:15:52;;;;;;;;;;;;;;;;;;5094282;28;19913;-47
2022/06/10 15:18:17;;;;;;;;;;;;;;;;;;5089187;28;19955;-46
2022/06/10 15:20:42;;;;;;;;;;;;;;;;;;5090238;28;20342;-45
2022/06/10 15:23:08;;;;;;;;;;;;;;;;;;5095622;28;19908;-46
2022/06/10 15:25:38;;;;;;;;;;;;;;;;;;5084566;28;19916;-45
2022/06/10 15:28:04;;;;;;;;;;;;;;;;;;5089403;28;19919;-45
2022/06/10 15:30:29;;;;;;;;;;;;;;;;;;5089109;28;19916;-44
2022/06/10 15:32:55;;;;;;;;;;;;;;;;;;5084821;28;19912;-47
2022/06/10 15:40:49;;;;;;;;;;;;;;;;;;5084942;28;20398;-47
2022/06/10 15:43:14;;;;;;;;;;;;;;;;;;5082864;28;19912;-45
2022/06/10 15:45:39;;;;;;;;;;;;;;;;;;5084533;28;20282;-46
2022/06/10 15:48:05;;;;;;;;;;;;;;;;;;5086788;28;19912;-45
2022/06/10 15:50:32;;;;;;;;;;;;;;;;;;5095830;28;19915;-48
2022/06/10 15:52:58;;;;;;;;;;;;;;;;;;5090985;28;19964;-46
2022/06/10 15:58:06;;;;;;;;;;;;;;;;;;5081283;28;19919;-44
2022/06/10 16:00:32;;;;;;;;;;;;;;;;;;5083903;28;19920;-46
2022/06/10 16:02:57;;;;;;;;;;;;;;;;;;5087189;28;20455;-44
2022/06/10 16:05:22;;;;;;;;;;;;;;;;;;5078208;28;19919;-44
2022/06/10 16:07:47;;;;;;;;;;;;;;;;;;5079239;28;19916;-46
2022/06/10 16:10:12;;;;;;;;;;;;;;;;;;5093874;28;19915;-46
2022/06/10 16:15:24;;;;;;;;;;;;;;;;;;5095545;28;19962;-47
2022/06/10 16:17:49;;;;;;;;;;;;;;;;;;5096029;28;19908;-45
2022/06/10 16:20:14;;;;;;;;;;;;;;;;;;5082318;28;20266;-44
2022/06/10 16:22:39;;;;;;;;;;;;;;;;;;5081107;28;19952;-45
2022/06/10 16:25:04;;;;;;;;;;;;;;;;;;5094939;28;19920;-47
2022/06/10 16:27:32;;;;;;;;;;;;;;;;;;5094963;28;19942;-49
2022/06/10 16:29:57;;;;;;;;;;;;;;;;;;5095091;28;19915;-43
2022/06/10 16:32:22;;;;;;;;;;;;;;;;;;5093717;28;19913;-43
2022/06/10 16:34:47;;;;;;;;;;;;;;;;;;5076858;28;19952;-43
2022/06/10 16:37:13;;;;;;;;;;;;;;;;;;5074627;28;20564;-44
2022/06/10 16:39:38;;;;;;;;;;;;;;;;;;5074646;28;19947;-44
2022/06/10 16:42:04;;;;;;;;;;;;;;;;;;5074453;28;19915;-44
2022/06/10 16:44:29;;;;;;;;;;;;;;;;;;5074746;28;19915;-45
2022/06/10 16:46:57;;;;;;;;;;;;;;;;;;5074334;28;19958;-45
2022/06/10 16:49:26;;;;;;;;;;;;;;;;;;5074404;28;19916;-44
2022/06/10 16:51:51;;;;;;;;;;;;;;;;;;5074491;28;19909;-43
2022/06/10 16:54:19;;;;;;;;;;;;;;;;;;5075391;28;19912;-43
2022/06/10 16:56:45;;;;;;;;;;;;;;;;;;5078608;28;19908;-43
2022/06/10 16:59:10;;;;;;;;;;;;;;;;;;5078438;28;20279;-44
2022/06/10 17:01:35;;;;;;;;;;;;;;;;;;5078395;28;19919;-45
2022/06/10 17:04:00;;;;;;;;;;;;;;;;;;5078310;28;19912;-44
2022/06/10 17:06:27;;;;;;;;;;;;;;;;;;5086255;28;19912;-45